sensor_id;sensor_type;location;lat;lon;timestamp;P1;durP1;ratioP1;P2;durP2;ratioP2
73100;SDS011;61288;53.446;-2.266;2023-07-31T00:00:32;5.80;;;1.63;;
73100;SDS011;61288;53.446;-2.266;2023-07-31T00:02:57;8.38;;;1.92;;
73100;SDS011;61288;53.446;-2.266;2023-07-31T00:05:23;5.18;;;1.77;;
73100;SDS011;61288;53.446;-2.266;2023-07-31T00:07:48;5.70;;;1.50;;
73100;SDS011;61288;53.446;-2.266;2023-07-31T00:10:14;6.97;;;2.00;;
73100;SDS011;61288;53.446;-2.266;2023-07-31T00:12:41;8.07;;;1.85;;
73100;SDS011;61288;53.446;-2.266;2023-07-31T00:15:08;7.32;;;1.77;;
73100;SDS011;61288;53.446;-2.266;2023-07-31T00:17:34;8.02;;;1.98;;
73100;SDS011;61288;53.446;-2.266;2023-07-31T00:20:01;7.88;;;1.77;;
73100;SDS011;61288;53.446;-2.266;2023-07-31T00:22:27;7.50;;;1.48;;
73100;SDS011;61288;53.446;-2.266;2023-07-31T00:24:55;5.78;;;1.63;;
73100;SDS011;61288;53.446;-2.266;2023-07-31T00:27:23;5.15;;;1.48;;
73100;SDS011;61288;53.446;-2.266;2023-07-31T00:29:48;6.22;;;1.70;;
73100;SDS011;61288;53.446;-2.266;2023-07-31T00:32:14;5.07;;;1.50;;
73100;SDS011;61288;53.446;-2.266;2023-07-31T00:34:40;9.95;;;1.65;;
73100;SDS011;61288;53.446;-2.266;2023-07-31T00:37:06;7.93;;;1.50;;
73100;SDS011;61288;53.446;-2.266;2023-07-31T00:39:33;7.88;;;1.65;;
73100;SDS011;61288;53.446;-2.266;2023-07-31T00:42:00;6.07;;;1.50;;
73100;SDS011;61288;53.446;-2.266;2023-07-31T00:44:25;5.95;;;1.40;;
73100;SDS011;61288;53.446;-2.266;2023-07-31T00:46:51;4.63;;;1.33;;
73100;SDS011;61288;53.446;-2.266;2023-07-31T00:49:22;5.60;;;1.63;;
73100;SDS011;61288;53.446;-2.266;2023-07-31T00:51:48;3.53;;;1.30;;
73100;SDS011;61288;53.446;-2.266;2023-07-31T00:54:14;6.40;;;1.52;;
73100;SDS011;61288;53.446;-2.266;2023-07-31T00:56:40;6.57;;;1.70;;
73100;SDS011;61288;53.446;-2.266;2023-07-31T00:59:07;2.95;;;1.27;;
73100;SDS011;61288;53.446;-2.266;2023-07-31T01:01:33;2.95;;;1.10;;
73100;SDS011;61288;53.446;-2.266;2023-07-31T01:03:58;3.88;;;1.40;;
73100;SDS011;61288;53.446;-2.266;2023-07-31T01:06:30;4.45;;;1.65;;
73100;SDS011;61288;53.446;-2.266;2023-07-31T01:09:22;5.10;;;1.40;;
73100;SDS011;61288;53.446;-2.266;2023-07-31T01:12:03;3.70;;;1.20;;
73100;SDS011;61288;53.446;-2.266;2023-07-31T01:14:29;5.00;;;1.42;;
73100;SDS011;61288;53.446;-2.266;2023-07-31T01:16:55;4.25;;;1.33;;
73100;SDS011;61288;53.446;-2.266;2023-07-31T01:19:22;2.72;;;1.20;;
73100;SDS011;61288;53.446;-2.266;2023-07-31T01:24:55;5.45;;;1.30;;
73100;SDS011;61288;53.446;-2.266;2023-07-31T01:29:56;6.72;;;1.45;;
73100;SDS011;61288;53.446;-2.266;2023-07-31T01:32:29;5.20;;;1.23;;
73100;SDS011;61288;53.446;-2.266;2023-07-31T01:34:55;4.65;;;1.38;;
73100;SDS011;61288;53.446;-2.266;2023-07-31T01:37:27;4.38;;;1.45;;
73100;SDS011;61288;53.446;-2.266;2023-07-31T01:39:55;5.75;;;1.27;;
73100;SDS011;61288;53.446;-2.266;2023-07-31T01:42:24;5.75;;;1.52;;
73100;SDS011;61288;53.446;-2.266;2023-07-31T01:44:49;4.82;;;1.30;;
73100;SDS011;61288;53.446;-2.266;2023-07-31T01:47:15;4.75;;;1.42;;
73100;SDS011;61288;53.446;-2.266;2023-07-31T01:49:41;4.32;;;1.30;;
73100;SDS011;61288;53.446;-2.266;2023-07-31T01:52:06;5.53;;;1.35;;
73100;SDS011;61288;53.446;-2.266;2023-07-31T01:54:32;6.03;;;1.35;;
73100;SDS011;61288;53.446;-2.266;2023-07-31T01:56:58;2.85;;;1.20;;
73100;SDS011;61288;53.446;-2.266;2023-07-31T01:59:24;4.40;;;1.40;;
73100;SDS011;61288;53.446;-2.266;2023-07-31T02:01:50;6.97;;;1.27;;
73100;SDS011;61288;53.446;-2.266;2023-07-31T02:04:15;3.25;;;1.10;;
73100;SDS011;61288;53.446;-2.266;2023-07-31T02:06:41;3.00;;;1.27;;
73100;SDS011;61288;53.446;-2.266;2023-07-31T02:09:07;4.07;;;1.05;;
73100;SDS011;61288;53.446;-2.266;2023-07-31T02:11:32;3.13;;;1.20;;
73100;SDS011;61288;53.446;-2.266;2023-07-31T02:13:58;2.95;;;1.13;;
73100;SDS011;61288;53.446;-2.266;2023-07-31T02:16:23;3.15;;;1.10;;
73100;SDS011;61288;53.446;-2.266;2023-07-31T02:18:50;4.55;;;1.20;;
73100;SDS011;61288;53.446;-2.266;2023-07-31T02:21:15;3.83;;;1.35;;
73100;SDS011;61288;53.446;-2.266;2023-07-31T02:23:41;2.90;;;1.10;;
73100;SDS011;61288;53.446;-2.266;2023-07-31T02:26:06;2.47;;;1.02;;
73100;SDS011;61288;53.446;-2.266;2023-07-31T02:28:32;2.70;;;1.20;;
73100;SDS011;61288;53.446;-2.266;2023-07-31T02:30:58;2.60;;;1.00;;
73100;SDS011;61288;53.446;-2.266;2023-07-31T02:33:24;3.75;;;1.20;;
73100;SDS011;61288;53.446;-2.266;2023-07-31T02:35:50;4.93;;;1.20;;
73100;SDS011;61288;53.446;-2.266;2023-07-31T02:38:16;4.53;;;1.17;;
73100;SDS011;61288;53.446;-2.266;2023-07-31T02:40:42;2.80;;;1.30;;
73100;SDS011;61288;53.446;-2.266;2023-07-31T02:43:08;5.25;;;1.20;;
73100;SDS011;61288;53.446;-2.266;2023-07-31T02:45:34;2.40;;;1.00;;
73100;SDS011;61288;53.446;-2.266;2023-07-31T02:48:01;2.85;;;1.10;;
73100;SDS011;61288;53.446;-2.266;2023-07-31T02:50:26;2.60;;;1.13;;
73100;SDS011;61288;53.446;-2.266;2023-07-31T02:52:57;5.07;;;1.38;;
73100;SDS011;61288;53.446;-2.266;2023-07-31T02:55:23;3.17;;;1.23;;
73100;SDS011;61288;53.446;-2.266;2023-07-31T02:57:49;2.00;;;1.00;;
73100;SDS011;61288;53.446;-2.266;2023-07-31T03:00:14;6.32;;;1.10;;
73100;SDS011;61288;53.446;-2.266;2023-07-31T03:02:40;3.72;;;1.05;;
73100;SDS011;61288;53.446;-2.266;2023-07-31T03:05:06;2.95;;;1.10;;
73100;SDS011;61288;53.446;-2.266;2023-07-31T03:07:31;3.67;;;1.30;;
73100;SDS011;61288;53.446;-2.266;2023-07-31T03:09:57;3.30;;;1.13;;
73100;SDS011;61288;53.446;-2.266;2023-07-31T03:12:22;5.07;;;1.27;;
73100;SDS011;61288;53.446;-2.266;2023-07-31T03:14:48;2.47;;;1.10;;
73100;SDS011;61288;53.446;-2.266;2023-07-31T03:17:14;3.15;;;1.30;;
73100;SDS011;61288;53.446;-2.266;2023-07-31T03:19:40;3.17;;;1.20;;
73100;SDS011;61288;53.446;-2.266;2023-07-31T03:22:05;3.63;;;1.17;;
73100;SDS011;61288;53.446;-2.266;2023-07-31T03:24:31;7.28;;;1.10;;
73100;SDS011;61288;53.446;-2.266;2023-07-31T03:26:56;10.43;;;1.30;;
73100;SDS011;61288;53.446;-2.266;2023-07-31T03:29:22;2.35;;;1.17;;
73100;SDS011;61288;53.446;-2.266;2023-07-31T03:31:49;2.75;;;1.10;;
73100;SDS011;61288;53.446;-2.266;2023-07-31T03:34:14;2.38;;;1.10;;
73100;SDS011;61288;53.446;-2.266;2023-07-31T03:36:40;4.05;;;1.33;;
73100;SDS011;61288;53.446;-2.266;2023-07-31T03:39:05;1.08;;;0.95;;
73100;SDS011;61288;53.446;-2.266;2023-07-31T03:41:31;2.20;;;1.02;;
73100;SDS011;61288;53.446;-2.266;2023-07-31T03:43:56;3.72;;;1.20;;
73100;SDS011;61288;53.446;-2.266;2023-07-31T03:46:23;3.72;;;1.30;;
73100;SDS011;61288;53.446;-2.266;2023-07-31T03:48:49;4.15;;;1.48;;
73100;SDS011;61288;53.446;-2.266;2023-07-31T03:51:16;3.22;;;1.40;;
73100;SDS011;61288;53.446;-2.266;2023-07-31T03:53:43;2.58;;;1.30;;
73100;SDS011;61288;53.446;-2.266;2023-07-31T03:56:10;4.47;;;1.27;;
73100;SDS011;61288;53.446;-2.266;2023-07-31T03:58:36;4.57;;;1.40;;
73100;SDS011;61288;53.446;-2.266;2023-07-31T04:01:02;6.03;;;1.30;;
73100;SDS011;61288;53.446;-2.266;2023-07-31T04:03:28;3.60;;;1.15;;
73100;SDS011;61288;53.446;-2.266;2023-07-31T04:05:54;5.75;;;1.58;;
73100;SDS011;61288;53.446;-2.266;2023-07-31T04:08:23;3.72;;;1.40;;
73100;SDS011;61288;53.446;-2.266;2023-07-31T04:10:48;6.03;;;1.20;;
73100;SDS011;61288;53.446;-2.266;2023-07-31T04:13:14;4.30;;;1.42;;
73100;SDS011;61288;53.446;-2.266;2023-07-31T04:15:40;3.08;;;1.25;;
73100;SDS011;61288;53.446;-2.266;2023-07-31T04:18:06;5.82;;;1.40;;
73100;SDS011;61288;53.446;-2.266;2023-07-31T04:20:31;5.65;;;1.38;;
73100;SDS011;61288;53.446;-2.266;2023-07-31T04:22:57;3.28;;;1.20;;
73100;SDS011;61288;53.446;-2.266;2023-07-31T04:25:25;4.57;;;1.30;;
73100;SDS011;61288;53.446;-2.266;2023-07-31T04:27:50;4.72;;;1.40;;
73100;SDS011;61288;53.446;-2.266;2023-07-31T04:30:16;3.05;;;1.20;;
73100;SDS011;61288;53.446;-2.266;2023-07-31T04:32:41;4.78;;;1.33;;
73100;SDS011;61288;53.446;-2.266;2023-07-31T04:35:07;6.28;;;1.60;;
73100;SDS011;61288;53.446;-2.266;2023-07-31T04:37:33;4.13;;;1.23;;
73100;SDS011;61288;53.446;-2.266;2023-07-31T04:39:58;3.90;;;1.48;;
73100;SDS011;61288;53.446;-2.266;2023-07-31T04:42:24;4.75;;;1.27;;
73100;SDS011;61288;53.446;-2.266;2023-07-31T04:44:53;4.05;;;1.48;;
73100;SDS011;61288;53.446;-2.266;2023-07-31T04:47:18;4.93;;;1.67;;
73100;SDS011;61288;53.446;-2.266;2023-07-31T04:49:45;7.80;;;1.50;;
73100;SDS011;61288;53.446;-2.266;2023-07-31T04:52:10;3.00;;;1.27;;
73100;SDS011;61288;53.446;-2.266;2023-07-31T04:54:39;4.53;;;1.38;;
73100;SDS011;61288;53.446;-2.266;2023-07-31T04:57:04;3.75;;;1.40;;
73100;SDS011;61288;53.446;-2.266;2023-07-31T04:59:30;3.92;;;1.42;;
73100;SDS011;61288;53.446;-2.266;2023-07-31T05:01:56;3.78;;;1.35;;
73100;SDS011;61288;53.446;-2.266;2023-07-31T05:04:22;8.50;;;2.42;;
73100;SDS011;61288;53.446;-2.266;2023-07-31T05:06:47;3.97;;;1.20;;
73100;SDS011;61288;53.446;-2.266;2023-07-31T05:09:13;4.72;;;1.23;;
73100;SDS011;61288;53.446;-2.266;2023-07-31T05:11:38;4.18;;;1.23;;
73100;SDS011;61288;53.446;-2.266;2023-07-31T05:14:05;5.15;;;1.23;;
73100;SDS011;61288;53.446;-2.266;2023-07-31T05:16:31;5.47;;;1.50;;
73100;SDS011;61288;53.446;-2.266;2023-07-31T05:18:56;4.85;;;1.40;;
73100;SDS011;61288;53.446;-2.266;2023-07-31T05:21:22;5.25;;;1.45;;
73100;SDS011;61288;53.446;-2.266;2023-07-31T05:23:47;7.10;;;1.45;;
73100;SDS011;61288;53.446;-2.266;2023-07-31T05:26:14;6.03;;;1.63;;
73100;SDS011;61288;53.446;-2.266;2023-07-31T05:28:39;4.78;;;1.58;;
73100;SDS011;61288;53.446;-2.266;2023-07-31T05:31:05;7.18;;;1.73;;
73100;SDS011;61288;53.446;-2.266;2023-07-31T05:33:31;7.22;;;1.80;;
73100;SDS011;61288;53.446;-2.266;2023-07-31T05:35:57;8.57;;;1.50;;
73100;SDS011;61288;53.446;-2.266;2023-07-31T05:38:23;6.70;;;1.42;;
73100;SDS011;61288;53.446;-2.266;2023-07-31T05:40:48;9.82;;;1.85;;
73100;SDS011;61288;53.446;-2.266;2023-07-31T05:43:14;7.68;;;1.95;;
73100;SDS011;61288;53.446;-2.266;2023-07-31T05:45:39;8.13;;;2.10;;
73100;SDS011;61288;53.446;-2.266;2023-07-31T05:48:05;6.50;;;2.05;;
73100;SDS011;61288;53.446;-2.266;2023-07-31T05:50:31;8.85;;;2.13;;
73100;SDS011;61288;53.446;-2.266;2023-07-31T05:52:57;8.45;;;1.98;;
73100;SDS011;61288;53.446;-2.266;2023-07-31T05:55:22;10.23;;;2.30;;
73100;SDS011;61288;53.446;-2.266;2023-07-31T05:57:49;9.48;;;2.33;;
73100;SDS011;61288;53.446;-2.266;2023-07-31T06:00:14;11.45;;;2.28;;
73100;SDS011;61288;53.446;-2.266;2023-07-31T06:02:40;8.60;;;1.95;;
73100;SDS011;61288;53.446;-2.266;2023-07-31T06:05:05;8.77;;;2.40;;
73100;SDS011;61288;53.446;-2.266;2023-07-31T06:07:31;12.48;;;2.38;;
73100;SDS011;61288;53.446;-2.266;2023-07-31T06:09:57;10.52;;;2.40;;
73100;SDS011;61288;53.446;-2.266;2023-07-31T06:12:28;9.15;;;2.53;;
73100;SDS011;61288;53.446;-2.266;2023-07-31T06:14:54;10.50;;;2.40;;
73100;SDS011;61288;53.446;-2.266;2023-07-31T06:17:20;9.20;;;2.22;;
73100;SDS011;61288;53.446;-2.266;2023-07-31T06:19:47;8.95;;;2.35;;
73100;SDS011;61288;53.446;-2.266;2023-07-31T06:22:12;11.57;;;3.00;;
73100;SDS011;61288;53.446;-2.266;2023-07-31T06:24:38;10.27;;;2.88;;
73100;SDS011;61288;53.446;-2.266;2023-07-31T06:27:04;12.77;;;2.65;;
73100;SDS011;61288;53.446;-2.266;2023-07-31T06:29:31;10.57;;;2.60;;
73100;SDS011;61288;53.446;-2.266;2023-07-31T06:31:56;11.98;;;2.88;;
73100;SDS011;61288;53.446;-2.266;2023-07-31T06:34:22;12.40;;;3.10;;
73100;SDS011;61288;53.446;-2.266;2023-07-31T06:36:47;12.57;;;2.78;;
73100;SDS011;61288;53.446;-2.266;2023-07-31T06:39:13;11.25;;;3.15;;
73100;SDS011;61288;53.446;-2.266;2023-07-31T06:41:38;11.32;;;3.22;;
73100;SDS011;61288;53.446;-2.266;2023-07-31T06:44:04;11.18;;;2.92;;
73100;SDS011;61288;53.446;-2.266;2023-07-31T06:46:29;13.13;;;3.05;;
73100;SDS011;61288;53.446;-2.266;2023-07-31T06:48:55;12.93;;;3.25;;
73100;SDS011;61288;53.446;-2.266;2023-07-31T06:51:20;18.58;;;3.33;;
73100;SDS011;61288;53.446;-2.266;2023-07-31T06:53:46;12.43;;;3.10;;
73100;SDS011;61288;53.446;-2.266;2023-07-31T06:56:11;8.70;;;2.83;;
73100;SDS011;61288;53.446;-2.266;2023-07-31T06:58:37;12.10;;;3.05;;
73100;SDS011;61288;53.446;-2.266;2023-07-31T07:01:02;14.63;;;3.20;;
73100;SDS011;61288;53.446;-2.266;2023-07-31T07:03:28;17.15;;;3.22;;
73100;SDS011;61288;53.446;-2.266;2023-07-31T07:05:54;11.50;;;3.50;;
73100;SDS011;61288;53.446;-2.266;2023-07-31T07:08:19;13.68;;;3.50;;
73100;SDS011;61288;53.446;-2.266;2023-07-31T07:10:46;15.63;;;3.25;;
73100;SDS011;61288;53.446;-2.266;2023-07-31T07:13:11;13.85;;;3.40;;
73100;SDS011;61288;53.446;-2.266;2023-07-31T07:15:38;12.35;;;3.50;;
73100;SDS011;61288;53.446;-2.266;2023-07-31T07:18:04;11.65;;;3.75;;
73100;SDS011;61288;53.446;-2.266;2023-07-31T07:20:29;14.15;;;3.65;;
73100;SDS011;61288;53.446;-2.266;2023-07-31T07:22:55;10.10;;;2.85;;
73100;SDS011;61288;53.446;-2.266;2023-07-31T07:25:20;13.57;;;3.38;;
73100;SDS011;61288;53.446;-2.266;2023-07-31T07:27:46;16.60;;;3.72;;
73100;SDS011;61288;53.446;-2.266;2023-07-31T07:30:11;17.23;;;3.78;;
73100;SDS011;61288;53.446;-2.266;2023-07-31T07:32:37;18.45;;;4.05;;
73100;SDS011;61288;53.446;-2.266;2023-07-31T07:35:02;13.30;;;3.10;;
73100;SDS011;61288;53.446;-2.266;2023-07-31T07:37:28;14.05;;;3.60;;
73100;SDS011;61288;53.446;-2.266;2023-07-31T07:39:54;14.85;;;3.25;;
73100;SDS011;61288;53.446;-2.266;2023-07-31T07:42:19;10.75;;;3.50;;
73100;SDS011;61288;53.446;-2.266;2023-07-31T07:44:45;16.73;;;3.38;;
73100;SDS011;61288;53.446;-2.266;2023-07-31T07:47:10;19.60;;;4.32;;
73100;SDS011;61288;53.446;-2.266;2023-07-31T07:49:35;14.45;;;3.60;;
73100;SDS011;61288;53.446;-2.266;2023-07-31T07:52:01;16.15;;;3.45;;
73100;SDS011;61288;53.446;-2.266;2023-07-31T07:54:28;12.55;;;3.60;;
73100;SDS011;61288;53.446;-2.266;2023-07-31T07:56:53;13.45;;;3.13;;
73100;SDS011;61288;53.446;-2.266;2023-07-31T07:59:19;16.17;;;3.42;;
73100;SDS011;61288;53.446;-2.266;2023-07-31T08:01:44;13.25;;;3.35;;
73100;SDS011;61288;53.446;-2.266;2023-07-31T08:04:10;14.40;;;3.28;;
73100;SDS011;61288;53.446;-2.266;2023-07-31T08:06:36;11.90;;;3.28;;
73100;SDS011;61288;53.446;-2.266;2023-07-31T08:09:01;13.00;;;3.05;;
73100;SDS011;61288;53.446;-2.266;2023-07-31T08:11:31;13.05;;;3.17;;
73100;SDS011;61288;53.446;-2.266;2023-07-31T08:13:57;14.35;;;2.97;;
73100;SDS011;61288;53.446;-2.266;2023-07-31T08:16:22;18.05;;;3.17;;
73100;SDS011;61288;53.446;-2.266;2023-07-31T08:18:47;11.23;;;2.95;;
73100;SDS011;61288;53.446;-2.266;2023-07-31T08:21:13;15.55;;;3.20;;
73100;SDS011;61288;53.446;-2.266;2023-07-31T08:23:40;13.90;;;3.20;;
73100;SDS011;61288;53.446;-2.266;2023-07-31T08:26:05;10.27;;;3.33;;
73100;SDS011;61288;53.446;-2.266;2023-07-31T08:28:39;15.05;;;3.38;;
73100;SDS011;61288;53.446;-2.266;2023-07-31T08:31:05;14.23;;;3.35;;
73100;SDS011;61288;53.446;-2.266;2023-07-31T08:33:30;15.00;;;3.20;;
73100;SDS011;61288;53.446;-2.266;2023-07-31T08:35:56;12.93;;;3.08;;
73100;SDS011;61288;53.446;-2.266;2023-07-31T08:38:22;12.43;;;3.03;;
73100;SDS011;61288;53.446;-2.266;2023-07-31T08:40:50;12.93;;;2.80;;
73100;SDS011;61288;53.446;-2.266;2023-07-31T08:43:17;12.75;;;3.33;;
73100;SDS011;61288;53.446;-2.266;2023-07-31T08:45:44;10.35;;;3.30;;
73100;SDS011;61288;53.446;-2.266;2023-07-31T08:48:09;11.88;;;3.22;;
73100;SDS011;61288;53.446;-2.266;2023-07-31T08:50:37;15.43;;;3.72;;
73100;SDS011;61288;53.446;-2.266;2023-07-31T08:53:04;11.48;;;3.20;;
73100;SDS011;61288;53.446;-2.266;2023-07-31T08:55:29;10.73;;;3.10;;
73100;SDS011;61288;53.446;-2.266;2023-07-31T08:57:57;12.55;;;2.80;;
73100;SDS011;61288;53.446;-2.266;2023-07-31T09:00:24;12.15;;;3.13;;
73100;SDS011;61288;53.446;-2.266;2023-07-31T09:05:28;11.95;;;2.75;;
73100;SDS011;61288;53.446;-2.266;2023-07-31T09:07:55;12.70;;;2.95;;
73100;SDS011;61288;53.446;-2.266;2023-07-31T09:10:22;10.00;;;2.95;;
73100;SDS011;61288;53.446;-2.266;2023-07-31T09:12:48;10.98;;;2.72;;
73100;SDS011;61288;53.446;-2.266;2023-07-31T09:15:16;15.57;;;3.17;;
73100;SDS011;61288;53.446;-2.266;2023-07-31T09:17:42;11.20;;;2.75;;
73100;SDS011;61288;53.446;-2.266;2023-07-31T09:20:17;13.25;;;2.95;;
73100;SDS011;61288;53.446;-2.266;2023-07-31T09:22:45;12.70;;;3.05;;
73100;SDS011;61288;53.446;-2.266;2023-07-31T09:25:26;17.15;;;3.35;;
73100;SDS011;61288;53.446;-2.266;2023-07-31T09:30:56;13.55;;;2.88;;
73100;SDS011;61288;53.446;-2.266;2023-07-31T09:33:22;12.45;;;2.90;;
73100;SDS011;61288;53.446;-2.266;2023-07-31T09:35:48;10.93;;;2.72;;
73100;SDS011;61288;53.446;-2.266;2023-07-31T09:38:14;12.77;;;3.17;;
73100;SDS011;61288;53.446;-2.266;2023-07-31T09:40:42;8.48;;;2.67;;
73100;SDS011;61288;53.446;-2.266;2023-07-31T09:43:09;11.68;;;2.78;;
73100;SDS011;61288;53.446;-2.266;2023-07-31T09:45:37;9.77;;;3.20;;
73100;SDS011;61288;53.446;-2.266;2023-07-31T09:48:07;11.48;;;3.00;;
73100;SDS011;61288;53.446;-2.266;2023-07-31T09:50:43;11.23;;;2.78;;
73100;SDS011;61288;53.446;-2.266;2023-07-31T09:53:10;11.00;;;2.63;;
73100;SDS011;61288;53.446;-2.266;2023-07-31T09:55:36;9.15;;;2.55;;
73100;SDS011;61288;53.446;-2.266;2023-07-31T09:58:06;13.10;;;3.42;;
73100;SDS011;61288;53.446;-2.266;2023-07-31T10:00:34;10.48;;;2.90;;
73100;SDS011;61288;53.446;-2.266;2023-07-31T10:03:00;12.73;;;3.03;;
73100;SDS011;61288;53.446;-2.266;2023-07-31T10:05:36;9.60;;;3.03;;
73100;SDS011;61288;53.446;-2.266;2023-07-31T10:08:04;8.88;;;2.45;;
73100;SDS011;61288;53.446;-2.266;2023-07-31T10:10:35;11.88;;;2.70;;
73100;SDS011;61288;53.446;-2.266;2023-07-31T10:13:01;7.72;;;2.47;;
73100;SDS011;61288;53.446;-2.266;2023-07-31T10:15:27;9.90;;;2.53;;
73100;SDS011;61288;53.446;-2.266;2023-07-31T10:17:55;9.43;;;2.60;;
73100;SDS011;61288;53.446;-2.266;2023-07-31T10:20:21;9.35;;;2.70;;
73100;SDS011;61288;53.446;-2.266;2023-07-31T10:22:50;12.68;;;2.70;;
73100;SDS011;61288;53.446;-2.266;2023-07-31T10:25:17;9.75;;;2.70;;
73100;SDS011;61288;53.446;-2.266;2023-07-31T10:27:44;8.25;;;2.75;;
73100;SDS011;61288;53.446;-2.266;2023-07-31T10:30:12;8.57;;;2.80;;
73100;SDS011;61288;53.446;-2.266;2023-07-31T10:32:43;9.50;;;2.38;;
73100;SDS011;61288;53.446;-2.266;2023-07-31T10:35:09;7.05;;;2.10;;
73100;SDS011;61288;53.446;-2.266;2023-07-31T10:37:40;10.30;;;2.38;;
73100;SDS011;61288;53.446;-2.266;2023-07-31T10:40:10;10.80;;;2.72;;
73100;SDS011;61288;53.446;-2.266;2023-07-31T10:42:50;9.73;;;2.63;;
73100;SDS011;61288;53.446;-2.266;2023-07-31T10:45:39;7.75;;;2.47;;
73100;SDS011;61288;53.446;-2.266;2023-07-31T10:48:14;8.30;;;2.40;;
73100;SDS011;61288;53.446;-2.266;2023-07-31T10:50:50;7.70;;;2.53;;
73100;SDS011;61288;53.446;-2.266;2023-07-31T10:53:23;8.18;;;2.20;;
73100;SDS011;61288;53.446;-2.266;2023-07-31T10:55:58;11.02;;;2.50;;
73100;SDS011;61288;53.446;-2.266;2023-07-31T10:58:26;8.50;;;2.38;;
73100;SDS011;61288;53.446;-2.266;2023-07-31T11:00:56;7.95;;;2.10;;
73100;SDS011;61288;53.446;-2.266;2023-07-31T11:03:27;8.85;;;2.28;;
73100;SDS011;61288;53.446;-2.266;2023-07-31T11:06:06;10.57;;;2.20;;
73100;SDS011;61288;53.446;-2.266;2023-07-31T11:08:33;9.90;;;2.28;;
73100;SDS011;61288;53.446;-2.266;2023-07-31T11:13:28;8.98;;;2.20;;
73100;SDS011;61288;53.446;-2.266;2023-07-31T11:16:15;6.55;;;2.05;;
73100;SDS011;61288;53.446;-2.266;2023-07-31T11:18:45;6.15;;;1.95;;
73100;SDS011;61288;53.446;-2.266;2023-07-31T11:21:20;7.65;;;1.75;;
73100;SDS011;61288;53.446;-2.266;2023-07-31T11:23:47;8.80;;;2.10;;
73100;SDS011;61288;53.446;-2.266;2023-07-31T11:26:14;6.82;;;2.17;;
73100;SDS011;61288;53.446;-2.266;2023-07-31T11:28:41;8.27;;;2.13;;
73100;SDS011;61288;53.446;-2.266;2023-07-31T11:31:10;6.22;;;1.80;;
73100;SDS011;61288;53.446;-2.266;2023-07-31T11:33:36;6.15;;;1.92;;
73100;SDS011;61288;53.446;-2.266;2023-07-31T11:36:01;8.77;;;2.28;;
73100;SDS011;61288;53.446;-2.266;2023-07-31T11:38:28;7.50;;;2.20;;
73100;SDS011;61288;53.446;-2.266;2023-07-31T11:40:56;9.52;;;2.30;;
73100;SDS011;61288;53.446;-2.266;2023-07-31T11:43:27;10.77;;;2.70;;
73100;SDS011;61288;53.446;-2.266;2023-07-31T11:45:57;8.18;;;2.45;;
73100;SDS011;61288;53.446;-2.266;2023-07-31T11:48:28;8.38;;;2.15;;
73100;SDS011;61288;53.446;-2.266;2023-07-31T11:50:58;9.10;;;2.28;;
73100;SDS011;61288;53.446;-2.266;2023-07-31T11:55:54;11.52;;;2.28;;
73100;SDS011;61288;53.446;-2.266;2023-07-31T11:58:22;9.98;;;2.45;;
73100;SDS011;61288;53.446;-2.266;2023-07-31T12:00:48;10.10;;;2.72;;
73100;SDS011;61288;53.446;-2.266;2023-07-31T12:03:14;10.77;;;2.42;;
73100;SDS011;61288;53.446;-2.266;2023-07-31T12:05:41;7.25;;;2.00;;
73100;SDS011;61288;53.446;-2.266;2023-07-31T12:08:15;13.57;;;3.00;;
73100;SDS011;61288;53.446;-2.266;2023-07-31T12:10:43;12.32;;;2.53;;
73100;SDS011;61288;53.446;-2.266;2023-07-31T12:13:11;8.43;;;2.65;;
73100;SDS011;61288;53.446;-2.266;2023-07-31T12:15:45;8.95;;;2.50;;
73100;SDS011;61288;53.446;-2.266;2023-07-31T12:18:20;9.68;;;2.67;;
73100;SDS011;61288;53.446;-2.266;2023-07-31T12:20:46;10.60;;;2.60;;
73100;SDS011;61288;53.446;-2.266;2023-07-31T12:23:17;10.68;;;2.78;;
73100;SDS011;61288;53.446;-2.266;2023-07-31T12:26:00;11.65;;;2.67;;
73100;SDS011;61288;53.446;-2.266;2023-07-31T12:28:25;11.13;;;3.03;;
73100;SDS011;61288;53.446;-2.266;2023-07-31T12:30:51;10.27;;;2.72;;
73100;SDS011;61288;53.446;-2.266;2023-07-31T12:33:16;9.65;;;2.63;;
73100;SDS011;61288;53.446;-2.266;2023-07-31T12:35:44;11.85;;;2.78;;
73100;SDS011;61288;53.446;-2.266;2023-07-31T12:38:12;16.33;;;2.85;;
73100;SDS011;61288;53.446;-2.266;2023-07-31T12:40:38;9.32;;;2.78;;
73100;SDS011;61288;53.446;-2.266;2023-07-31T12:43:04;14.98;;;3.00;;
73100;SDS011;61288;53.446;-2.266;2023-07-31T12:45:30;11.48;;;3.03;;
73100;SDS011;61288;53.446;-2.266;2023-07-31T12:47:57;13.20;;;2.72;;
73100;SDS011;61288;53.446;-2.266;2023-07-31T12:50:24;11.70;;;2.70;;
73100;SDS011;61288;53.446;-2.266;2023-07-31T12:52:51;12.40;;;3.30;;
73100;SDS011;61288;53.446;-2.266;2023-07-31T12:55:18;13.80;;;3.58;;
73100;SDS011;61288;53.446;-2.266;2023-07-31T12:57:44;12.75;;;3.47;;
73100;SDS011;61288;53.446;-2.266;2023-07-31T13:00:09;14.50;;;3.47;;
73100;SDS011;61288;53.446;-2.266;2023-07-31T13:02:36;14.13;;;3.40;;
73100;SDS011;61288;53.446;-2.266;2023-07-31T13:05:02;22.75;;;4.95;;
73100;SDS011;61288;53.446;-2.266;2023-07-31T13:07:27;12.77;;;3.42;;
73100;SDS011;61288;53.446;-2.266;2023-07-31T13:09:53;16.75;;;4.43;;
73100;SDS011;61288;53.446;-2.266;2023-07-31T13:12:18;13.70;;;3.13;;
73100;SDS011;61288;53.446;-2.266;2023-07-31T13:14:44;14.43;;;3.60;;
73100;SDS011;61288;53.446;-2.266;2023-07-31T13:17:09;15.98;;;3.65;;
73100;SDS011;61288;53.446;-2.266;2023-07-31T13:19:35;16.10;;;3.67;;
73100;SDS011;61288;53.446;-2.266;2023-07-31T13:22:01;14.63;;;4.00;;
73100;SDS011;61288;53.446;-2.266;2023-07-31T13:24:26;12.55;;;3.60;;
73100;SDS011;61288;53.446;-2.266;2023-07-31T13:26:52;11.43;;;2.95;;
73100;SDS011;61288;53.446;-2.266;2023-07-31T13:29:17;11.30;;;3.15;;
73100;SDS011;61288;53.446;-2.266;2023-07-31T13:31:43;12.55;;;3.15;;
73100;SDS011;61288;53.446;-2.266;2023-07-31T13:34:08;14.05;;;3.60;;
73100;SDS011;61288;53.446;-2.266;2023-07-31T13:36:34;16.27;;;3.88;;
73100;SDS011;61288;53.446;-2.266;2023-07-31T13:39:01;12.70;;;3.25;;
73100;SDS011;61288;53.446;-2.266;2023-07-31T13:41:28;12.73;;;3.22;;
73100;SDS011;61288;53.446;-2.266;2023-07-31T13:43:53;13.93;;;3.35;;
73100;SDS011;61288;53.446;-2.266;2023-07-31T13:46:19;13.07;;;3.08;;
73100;SDS011;61288;53.446;-2.266;2023-07-31T13:48:44;11.35;;;3.20;;
73100;SDS011;61288;53.446;-2.266;2023-07-31T13:51:11;12.73;;;3.83;;
73100;SDS011;61288;53.446;-2.266;2023-07-31T13:53:37;13.80;;;3.20;;
73100;SDS011;61288;53.446;-2.266;2023-07-31T13:56:05;14.18;;;3.60;;
73100;SDS011;61288;53.446;-2.266;2023-07-31T13:58:31;17.05;;;3.55;;
73100;SDS011;61288;53.446;-2.266;2023-07-31T14:00:57;12.05;;;3.55;;
73100;SDS011;61288;53.446;-2.266;2023-07-31T14:03:22;13.27;;;2.83;;
73100;SDS011;61288;53.446;-2.266;2023-07-31T14:05:48;11.45;;;2.75;;
73100;SDS011;61288;53.446;-2.266;2023-07-31T14:08:14;14.85;;;4.30;;
73100;SDS011;61288;53.446;-2.266;2023-07-31T14:10:39;13.82;;;3.47;;
73100;SDS011;61288;53.446;-2.266;2023-07-31T14:13:05;18.48;;;3.40;;
73100;SDS011;61288;53.446;-2.266;2023-07-31T14:15:31;15.50;;;4.00;;
73100;SDS011;61288;53.446;-2.266;2023-07-31T14:17:57;15.93;;;4.07;;
73100;SDS011;61288;53.446;-2.266;2023-07-31T14:20:22;16.45;;;3.60;;
73100;SDS011;61288;53.446;-2.266;2023-07-31T14:22:48;13.48;;;3.22;;
73100;SDS011;61288;53.446;-2.266;2023-07-31T14:25:13;12.52;;;2.20;;
73100;SDS011;61288;53.446;-2.266;2023-07-31T14:27:39;6.97;;;2.42;;
73100;SDS011;61288;53.446;-2.266;2023-07-31T14:30:05;8.18;;;1.90;;
73100;SDS011;61288;53.446;-2.266;2023-07-31T14:32:31;5.18;;;2.03;;
73100;SDS011;61288;53.446;-2.266;2023-07-31T14:34:57;6.85;;;1.60;;
73100;SDS011;61288;53.446;-2.266;2023-07-31T14:37:22;5.95;;;1.60;;
73100;SDS011;61288;53.446;-2.266;2023-07-31T14:39:50;8.45;;;1.73;;
73100;SDS011;61288;53.446;-2.266;2023-07-31T14:42:16;7.15;;;1.45;;